KI5NYZ-13 Weather Reports


time (UTC)temp
F
wind
direction
speed
knots
gust
knots
rain 1hr
in
rain 24hr
in
rain mn
in
humidity
%
barometer
mb
20220524030422 65 123 1.7 6.1 0.00 0.07 0.07 75 1007.4
20220524025421 66 114 2.6 6.1 0.00 0.07 0.07 75 1007.3
20220524024420 67 111 3.5 7.8 0.00 0.07 0.07 74 1007.0
20220524023419 68 145 1.7 7.8 0.00 0.07 0.07 71 1006.5
20220524022418 68 164 2.6 7.8 0.00 0.07 0.07 71 1006.2
20220524021417 69 145 1.7 7.0 0.00 0.07 0.07 69 1005.9
20220524020416 70 126 1.7 7.0 0.00 0.07 0.07 65 1005.3
20220524015415 70 180 2.6 8.7 0.00 0.07 0.07 63 1004.9
20220524014414 71 176 2.6 7.8 0.00 0.07 0.07 61 1004.7
20220524013413 71 151 2.6 8.7 0.00 0.06 0.06 59 1004.5
20220524012412 71 131 2.6 9.6 0.00 0.06 0.06 56 1004.6
20220524011411 71 142 2.6 8.7 0.00 0.06 0.06 59 1004.8
20220524010410 71 128 2.6 7.8 0.00 0.06 0.06 59 1004.7
20220524005409 72 127 3.5 10.4 0.00 0.06 0.06 56 1004.3
20220524004408 74 126 3.5 11.3 0.00 0.06 0.06 62 1003.8
20220524003407 77 122 4.3 10.4 0.00 0.06 0.06 56 1002.7
20220524002406 79 124 3.5 7.0 0.01 0.06 0.06 53 1002.3
20220524001405 81 115 3.5 3.5 0.02 0.06 0.06 50 1002.1
20220524000404 81 128 2.6 3.5 0.02 0.06 0.06 43 1002.2
20220523235403 81 122 4.3 4.3 0.02 0.06 0.06 45 1002.4
20220523234402 81 122 2.6 2.6 0.01 0.05 0.05 47 1002.6
20220523233401 82 140 3.5 3.5 0.00 0.04 0.04 47 1002.7
20220523232400 82 125 2.6 2.6 0.00 0.03 0.03 48 1003.0
20220523231359 80 110 2.6 2.6 0.00 0.03 0.03 50 1003.5
20220523230358 78 128 2.6 2.6 0.00 0.03 0.03 55 1004.1
20220523225357 77 110 2.6 2.6 0.00 0.03 0.03 57 1004.3
20220523224356 76 112 2.6 3.5 0.00 0.03 0.03 61 1004.7
20220523223355 75 115 3.5 3.5 0.00 0.03 0.03 64 1005.0
20220523222354 75 118 3.5 5.2 0.00 0.03 0.03 64 1005.1
20220523221353 76 118 3.5 3.5 0.01 0.03 0.03 63 1004.9
20220523220352 78 118 3.5 3.5 0.01 0.03 0.03 60 1004.6
20220523215351 80 110 1.7 2.6 0.01 0.03 0.03 52 1004.4
20220523214350 80 170 3.5 3.5 0.00 0.02 0.02 49 1004.5
20220523213349 81 160 2.6 2.6 0.02 0.02 0.02 46 1004.6
20220523212348 81 179 4.3 4.3 0.01 0.02 0.02 46 1004.7
20220523211347 80 161 1.7 2.6 0.02 0.02 0.02 47 1005.0
20220523210346 79 123 2.6 2.6 0.01 0.02 0.02 49 1005.5
20220523205345 79 156 2.6 2.6 0.01 0.02 0.02 51 1005.9
20220523204344 80 146 3.5 3.5 0.00 0.01 0.01 50 1005.8
20220523203343 81 160 2.6 2.6 0.00 0.00 0.00 48 1005.9
20220523202342 81 169 2.6 2.6 0.00 0.00 0.00 48 1006.1
20220523201341 81 146 1.7 2.6 0.00 0.00 0.00 46 1006.2
20220523200340 81 160 3.5 3.5 0.00 0.00 0.00 48 1006.7
20220523195339 80 171 2.6 2.6 0.00 0.00 0.00 48 1007.1
20220523194338 80 180 2.6 2.6 0.00 0.00 0.00 48 1007.4
20220523193337 79 173 3.5 3.5 0.00 0.00 0.00 50 1007.9
20220523192336 76 180 3.5 3.5 0.00 0.00 0.00 54 1008.8
20220523191335 76 167 2.6 2.6 0.00 0.00 0.00 54 1009.0
20220523190334 76 169 2.6 3.5 0.00 0.00 0.00 54 1009.2
20220523185333 75 162 3.5 3.5 0.00 0.00 0.00 55 1009.6
20220523184332 74 140 2.6 2.6 0.00 0.00 0.00 57 1010.1
20220523183331 75 171 2.6 2.6 0.00 0.00 0.00 56 1010.1
20220523182330 75 167 2.6 3.5 0.00 0.00 0.00 56 1010.3
20220523181329 74 168 2.6 2.6 0.00 0.00 0.00 55 1010.7
20220523180328 73 158 2.6 2.6 0.00 0.00 0.00 57 1010.9
20220523175327 73 172 1.7 2.6 0.00 0.00 0.00 56 1011.3
20220523174326 70 141 2.6 2.6 0.00 0.00 0.00 61 1012.1
20220523173325 70 155 1.7 2.6 0.00 0.00 0.00 61 1012.3
20220523172324 69 160 2.6 2.6 0.00 0.00 0.00 62 1012.5
20220523171323 69 158 2.6 2.6 0.00 0.00 0.00 62 1012.5
20220523170322 69 156 2.6 2.6 0.00 0.00 0.00 62 1012.7
20220523165321 67 122 1.7 2.6 0.00 0.00 0.00 63 1013.0
20220523164320 66 136 1.7 1.7 0.00 0.00 0.00 65 1013.6
20220523163319 66 120 1.7 1.7 0.00 0.00 0.00 66 1013.9
20220523162318 65 117 1.7 1.7 0.00 0.00 0.00 68 1014.4
20220523161317 64 117 4.3 4.3 0.00 0.00 0.00 69 1014.7
20220523160316 63 116 3.5 6.1 0.00 0.00 0.00 70 1014.8
20220523155315 63 119 4.3 4.3 0.00 0.00 0.00 70 1014.8
20220523154314 63 119 4.3 5.2 0.00 0.00 0.00 70 1014.9
20220523153313 62 116 7.0 7.0 0.00 0.00 0.00 71 1014.9
20220523152312 62 112 5.2 5.2 0.00 0.00 0.00 70 1015.0
20220523151311 61 112 5.2 6.1 0.00 0.00 0.00 73 1015.3
20220523150310 61 113 4.3 6.1 0.00 0.00 0.00 73 1015.3
20220523145309 61 111 7.0 7.0 0.00 0.00 0.00 74 1015.1
20220523144308 61 111 7.0 7.8 0.00 0.00 0.00 73 1015.2
20220523143307 60 113 7.0 7.0 0.00 0.00 0.00 74 1015.2
20220523142306 60 114 6.1 7.8 0.00 0.00 0.00 74 1015.4
20220523141305 60 112 5.2 7.0 0.00 0.00 0.00 74 1015.6
20220523140304 59 108 6.1 6.1 0.00 0.00 0.00 75 1015.8
20220523135303 59 107 6.1 6.1 0.00 0.00 0.00 75 1016.0
20220523134302 59 104 5.2 5.2 0.00 0.00 0.00 74 1016.1
20220523133301 59 105 5.2 6.1 0.00 0.00 0.00 74 1015.9
20220523132300 59 103 4.3 4.3 0.00 0.00 0.00 73 1016.0
20220523131259 59 104 4.3 4.3 0.00 0.00 0.00 73 1015.9
20220523130258 59 102 2.6 3.5 0.00 0.00 0.00 73 1016.1
20220523125257 59 105 2.6 2.6 0.00 0.00 0.00 73 1016.1
20220523124256 59 109 3.5 3.5 0.00 0.00 0.00 73 1016.1
20220523123255 59 111 4.3 4.3 0.00 0.00 0.00 72 1016.0
20220523122254 59 112 4.3 4.3 0.00 0.00 0.00 72 1016.1
20220523121253 58 104 3.5 3.5 0.00 0.00 0.00 71 1016.1
20220523120252 58 104 2.6 2.6 0.00 0.00 0.00 70 1016.0
20220523115251 58 112 4.3 4.3 0.00 0.00 0.00 69 1016.1
20220523114250 58 110 3.5 3.5 0.00 0.00 0.00 69 1016.3
20220523113249 58 114 5.2 5.2 0.00 0.00 0.00 68 1016.0
20220523112248 59 111 4.3 4.3 0.00 0.00 0.00 67 1015.9
20220523111247 59 108 4.3 5.2 0.00 0.00 0.00 65 1015.9
20220523110246 59 106 3.5 3.5 0.00 0.00 0.00 64 1016.2
20220523105245 59 111 4.3 7.0 0.00 0.00 0.00 62 1016.2
20220523104244 59 107 4.3 5.2 0.00 0.00 0.00 59 1016.3
20220523103243 59 111 6.1 6.1 0.00 0.00 0.00 59 1016.3
20220523102242 59 113 5.2 5.2 0.00 0.00 0.00 58 1016.4
20220523101241 59 110 5.2 6.1 0.00 0.00 0.00 57 1016.3
20220523100240 60 112 6.1 7.0 0.00 0.00 0.00 56 1016.5
20220523095239 60 110 5.2 5.2 0.00 0.00 0.00 55 1016.3
20220523094238 60 100 4.3 5.2 0.00 0.00 0.00 52 1016.4
20220523093237 60 103 3.5 3.5 0.00 0.00 0.00 50 1016.5
20220523092236 61 104 4.3 4.3 0.00 0.00 0.00 49 1016.3
20220523091235 61 106 4.3 4.3 0.00 0.00 0.00 49 1016.0
20220523090234 61 100 4.3 4.3 0.00 0.00 0.00 48 1016.0
20220523085233 61 104 4.3 4.3 0.00 0.00 0.00 47 1016.0
20220523084232 61 93 3.5 4.3 0.00 0.00 0.00 48 1016.0
20220523083231 61 104 5.2 5.2 0.00 0.00 0.00 47 1016.0
20220523082230 61 94 3.5 3.5 0.00 0.00 0.00 46 1016.0
20220523081229 61 96 3.5 4.3 0.00 0.00 0.00 45 1016.0
20220523080228 61 105 3.5 3.5 0.00 0.00 0.00 44 1016.2
20220523075227 61 101 3.5 3.5 0.00 0.00 0.00 43 1016.3
20220523074226 61 101 3.5 3.5 0.00 0.00 0.00 43 1016.5
20220523073225 61 105 2.6 2.6 0.00 0.00 0.00 43 1016.7
20220523072224 60 108 2.6 2.6 0.00 0.00 0.00 43 1016.9
20220523071223 60 109 1.7 1.7 0.00 0.00 0.00 43 1016.9
20220523070222 60 101 1.7 1.7 0.00 0.00 0.00 43 1016.9
20220523065221 61 110 2.6 2.6 0.00 0.00 0.00 42 1016.8
20220523064220 61 105 1.7 1.7 0.00 0.00 0.00 42 1016.9
20220523063219 61 107 1.7 1.7 0.00 0.00 0.00 42 1016.9
20220523062218 62 107 1.7 1.7 0.00 0.00 0.00 42 1016.8
20220523061217 62 107 2.6 2.6 0.00 0.00 0.00 41 1016.7
20220523060216 63 107 1.7 1.7 0.00 0.00 0.00 41 1016.6
20220523055215 63 110 1.7 1.7 0.00 0.00 0.00 40 1016.7
20220523054214 63 110 1.7 1.7 0.00 0.00 0.00 41 1016.7
20220523053213 63 110 1.7 1.7 0.00 0.00 0.00 42 1016.8
20220523052212 64 114 2.6 2.6 0.00 0.00 0.00 42 1017.0
20220523051211 64 116 1.7 1.7 0.00 0.00 0.00 42 1017.1
20220523050210 63 117 2.6 2.6 0.00 0.00 0.00 42 1017.2
20220523045209 63 116 1.7 1.7 0.00 0.00 0.00 42 1017.4
20220523044208 63 118 1.7 1.7 0.00 0.00 0.00 43 1017.4
20220523043207 63 121 1.7 1.7 0.00 0.00 0.00 43 1017.5
20220523042206 64 124 0.9 0.9 0.00 0.00 0.00 42 1017.4
20220523041205 64 116 0.9 1.7 0.00 0.00 0.00 41 1016.9
20220523040204 65 121 0.9 0.9 0.00 0.00 0.00 40 1016.9
20220523035203 65 116 0.9 0.9 0.00 0.00 0.00 40 1016.7
20220523034202 65 124 0.9 2.6 0.00 0.00 0.00 39 1016.5
20220523033201 65 114 0.9 2.6 0.00 0.00 0.00 39 1016.7
20220523032200 65 128 0.9 1.7 0.00 0.00 0.00 38 1016.6
20220523031159 66 138 0.0 0.9 0.00 0.00 0.00 38 1016.5